createdAt,value
2023-04-15T00:02:15.937Z,1.75
2023-04-15T00:04:43.954Z,1.80
2023-04-15T00:07:12.135Z,1.98
2023-04-15T00:09:40.170Z,2.38
2023-04-15T00:12:09.064Z,1.80
2023-04-15T00:14:38.712Z,2.10
2023-04-15T00:17:07.408Z,1.90
2023-04-15T00:19:35.340Z,1.63
2023-04-15T00:22:03.346Z,1.88
2023-04-15T00:24:31.580Z,2.33
2023-04-15T00:26:59.941Z,2.85
2023-04-15T00:29:28.405Z,2.45
2023-04-15T00:31:58.023Z,2.38
2023-04-15T00:34:25.953Z,2.88
2023-04-15T00:36:53.845Z,2.60
2023-04-15T00:39:22.760Z,2.47
2023-04-15T00:41:50.900Z,2.00
2023-04-15T00:44:19.668Z,2.00
2023-04-15T00:46:49.405Z,2.05
2023-04-15T00:49:19.345Z,1.80
2023-04-15T00:51:47.256Z,2.40
2023-04-15T00:54:15.305Z,2.22
2023-04-15T00:56:43.697Z,1.95
2023-04-15T00:59:11.742Z,2.40
2023-04-15T01:01:39.907Z,2.15
2023-04-15T01:04:10.222Z,1.60
2023-04-15T01:06:39.711Z,2.10
2023-04-15T01:09:07.639Z,1.98
2023-04-15T01:11:36.297Z,2.00
2023-04-15T01:14:05.228Z,2.33
2023-04-15T01:16:33.133Z,2.25
2023-04-15T01:19:02.060Z,1.95
2023-04-15T01:21:30.304Z,2.30
2023-04-15T01:24:00.563Z,2.13
2023-04-15T01:26:30.726Z,2.10
2023-04-15T01:28:58.844Z,2.22
2023-04-15T01:31:27.331Z,2.25
2023-04-15T01:33:55.286Z,2.42
2023-04-15T01:36:23.213Z,2.35
2023-04-15T01:38:52.479Z,2.25
2023-04-15T01:41:25.309Z,2.00
2023-04-15T01:43:54.753Z,2.10
2023-04-15T01:46:22.737Z,1.90
2023-04-15T01:48:50.847Z,2.22
2023-04-15T01:51:18.859Z,2.40
2023-04-15T01:53:47.265Z,2.00
2023-04-15T01:56:16.846Z,2.20
2023-04-15T01:58:44.906Z,2.60
2023-04-15T02:01:15.199Z,2.40
2023-04-15T02:03:43.476Z,2.28
2023-04-15T02:06:11.459Z,2.60
2023-04-15T02:08:39.695Z,2.30
2023-04-15T02:11:07.630Z,1.92
2023-04-15T02:13:35.664Z,2.38
2023-04-15T02:16:04.951Z,2.25
2023-04-15T02:18:34.300Z,2.20
2023-04-15T02:21:02.719Z,2.08
2023-04-15T02:23:30.810Z,2.38
2023-04-15T02:25:59.852Z,2.35
2023-04-15T02:28:27.758Z,2.20
2023-04-15T02:30:57.639Z,2.53
2023-04-15T02:33:25.831Z,2.40
2023-04-15T02:35:55.110Z,2.83
2023-04-15T02:38:23.008Z,2.63
2023-04-15T02:40:51.509Z,2.20
2023-04-15T02:43:19.435Z,2.33
2023-04-15T02:45:48.174Z,2.20
2023-04-15T02:48:18.025Z,2.53
2023-04-15T02:50:46.613Z,3.33
2023-04-15T02:53:16.109Z,2.80
2023-04-15T02:55:44.031Z,2.65
2023-04-15T02:58:11.932Z,2.85
2023-04-15T03:00:39.865Z,2.33
2023-04-15T03:03:07.967Z,2.50
2023-04-15T03:05:36.034Z,2.50
2023-04-15T03:08:04.016Z,2.70
2023-04-15T03:10:33.350Z,2.78
2023-04-15T03:13:01.340Z,2.45
2023-04-15T03:15:29.417Z,2.60
2023-04-15T03:17:57.490Z,2.92
2023-04-15T03:20:25.514Z,2.60
2023-04-15T03:22:54.808Z,2.15
2023-04-15T03:25:22.733Z,2.80
2023-04-15T03:27:52.132Z,2.67
2023-04-15T03:30:20.146Z,2.30
2023-04-15T03:32:48.124Z,2.33
2023-04-15T03:35:16.420Z,2.50
2023-04-15T03:37:44.389Z,2.15
2023-04-15T03:40:13.176Z,2.08
2023-04-15T03:42:41.085Z,2.47
2023-04-15T03:45:11.553Z,2.38
2023-04-15T03:47:39.606Z,2.60
2023-04-15T03:50:08.851Z,2.70
2023-04-15T03:52:36.808Z,2.80
2023-04-15T03:55:05.224Z,2.50
2023-04-15T03:57:37.965Z,2.78
2023-04-15T04:00:07.105Z,2.35
2023-04-15T04:02:36.775Z,3.38
2023-04-15T04:05:05.257Z,3.10
2023-04-15T04:07:33.145Z,2.78
2023-04-15T04:10:01.286Z,3.40
2023-04-15T04:12:29.253Z,3.17
2023-04-15T04:14:57.209Z,3.72
2023-04-15T04:17:25.461Z,3.45
2023-04-15T04:19:54.766Z,3.58
2023-04-15T04:22:24.720Z,3.20
2023-04-15T04:24:52.620Z,4.40
2023-04-15T04:27:20.750Z,5.10
2023-04-15T04:29:49.889Z,6.13
2023-04-15T04:32:17.977Z,3.85
2023-04-15T04:34:45.894Z,3.97
2023-04-15T04:37:15.294Z,4.05
2023-04-15T04:39:43.218Z,4.32
2023-04-15T04:42:11.115Z,3.58
2023-04-15T04:44:39.125Z,3.20
2023-04-15T04:47:07.589Z,3.40
2023-04-15T04:49:35.586Z,3.88
2023-04-15T04:52:03.779Z,4.03
2023-04-15T04:54:33.255Z,3.58
2023-04-15T04:57:01.661Z,3.42
2023-04-15T04:59:29.558Z,8.85
2023-04-15T05:01:57.675Z,6.05
2023-04-15T05:04:26.259Z,4.65
2023-04-15T05:06:54.227Z,5.03
2023-04-15T05:09:22.166Z,4.55
2023-04-15T05:11:51.522Z,4.18
2023-04-15T05:14:19.760Z,4.30
2023-04-15T05:16:48.446Z,3.50
2023-04-15T05:19:16.372Z,3.67
2023-04-15T05:21:44.435Z,3.20
2023-04-15T05:24:12.545Z,3.10
2023-04-15T05:26:41.204Z,2.92
2023-04-15T05:29:11.277Z,2.70
2023-04-15T05:31:39.522Z,2.60
2023-04-15T05:34:07.629Z,2.60
2023-04-15T05:36:35.605Z,2.42
2023-04-15T05:39:04.313Z,2.33
2023-04-15T05:41:32.341Z,2.40
2023-04-15T05:44:00.713Z,2.17
2023-04-15T05:46:30.066Z,2.35
2023-04-15T05:48:58.152Z,2.40
2023-04-15T05:51:26.439Z,2.47
2023-04-15T05:53:54.437Z,2.03
2023-04-15T05:56:22.470Z,2.20
2023-04-15T05:58:52.436Z,2.83
2023-04-15T06:01:24.525Z,2.25
2023-04-15T06:03:53.905Z,2.10
2023-04-15T06:06:21.968Z,2.65
2023-04-15T06:08:49.911Z,2.60
2023-04-15T06:11:17.972Z,2.45
2023-04-15T06:13:45.922Z,2.60
2023-04-15T06:16:15.000Z,2.42
2023-04-15T06:18:43.023Z,2.65
2023-04-15T06:21:12.628Z,2.33
2023-04-15T06:23:41.284Z,2.30
2023-04-15T06:26:09.199Z,2.22
2023-04-15T06:28:37.178Z,2.38
2023-04-15T06:31:05.117Z,2.78
2023-04-15T06:33:33.409Z,2.40
2023-04-15T06:36:01.373Z,2.33
2023-04-15T06:38:30.682Z,3.03
2023-04-15T06:40:58.643Z,2.03
2023-04-15T06:43:26.818Z,2.72
2023-04-15T06:45:54.841Z,2.15
2023-04-15T06:48:22.737Z,1.80
2023-04-15T06:50:50.821Z,1.80
2023-04-15T06:53:18.739Z,1.65
2023-04-15T06:55:48.106Z,2.20
2023-04-15T06:58:16.264Z,1.70
2023-04-15T07:00:44.879Z,2.08
2023-04-15T07:03:13.839Z,2.80
2023-04-15T07:05:42.464Z,2.80
2023-04-15T07:08:10.429Z,2.40
2023-04-15T07:10:38.329Z,2.92
2023-04-15T07:13:08.962Z,2.20
2023-04-15T07:15:37.001Z,2.25
2023-04-15T07:18:05.272Z,2.20
2023-04-15T07:20:33.262Z,2.33
2023-04-15T07:23:01.496Z,2.42
2023-04-15T07:25:29.438Z,1.90
2023-04-15T07:27:57.355Z,2.40
2023-04-15T07:30:26.637Z,2.63
2023-04-15T07:32:55.084Z,2.30
2023-04-15T07:35:23.388Z,2.60
2023-04-15T07:37:51.360Z,2.00
2023-04-15T07:40:19.908Z,2.40
2023-04-15T07:42:49.427Z,1.70
2023-04-15T07:45:17.543Z,2.55
2023-04-15T07:47:46.982Z,2.55
2023-04-15T07:50:16.305Z,2.83
2023-04-15T07:52:44.430Z,2.10
2023-04-15T07:55:12.401Z,1.92
2023-04-15T07:57:40.303Z,1.88
2023-04-15T08:00:10.196Z,2.25
2023-04-15T08:02:40.300Z,2.30
2023-04-15T08:05:10.959Z,2.25
2023-04-15T08:07:39.482Z,2.20
2023-04-15T08:10:08.366Z,2.35
2023-04-15T08:12:36.356Z,2.67
2023-04-15T08:15:04.422Z,2.72
2023-04-15T08:17:32.443Z,2.25
2023-04-15T08:20:00.433Z,2.30
2023-04-15T08:22:29.719Z,2.60
2023-04-15T08:24:57.893Z,2.67
2023-04-15T08:27:26.033Z,2.22
2023-04-15T08:29:54.027Z,2.40
2023-04-15T08:32:22.604Z,2.55
2023-04-15T08:34:50.825Z,2.22
2023-04-15T08:37:18.777Z,2.08
2023-04-15T08:39:48.594Z,2.15
2023-04-15T08:42:20.371Z,2.40
2023-04-15T08:44:49.424Z,2.78
2023-04-15T08:47:22.756Z,2.25
2023-04-15T08:49:53.957Z,2.08
2023-04-15T08:52:22.615Z,1.95
2023-04-15T08:54:52.380Z,1.67
2023-04-15T08:57:20.695Z,2.40
2023-04-15T08:59:49.552Z,2.00
2023-04-15T09:02:17.872Z,1.95
2023-04-15T09:04:45.922Z,2.63
2023-04-15T09:07:13.914Z,1.92
2023-04-15T09:09:42.261Z,1.88
2023-04-15T09:12:13.584Z,2.03
2023-04-15T09:14:42.201Z,1.83
2023-04-15T09:17:11.784Z,2.03
2023-04-15T09:19:39.706Z,1.95
2023-04-15T09:22:07.932Z,1.88
2023-04-15T09:24:39.250Z,2.08
2023-04-15T09:27:07.953Z,2.08
2023-04-15T09:29:37.505Z,2.53
2023-04-15T09:32:12.673Z,2.25
2023-04-15T09:34:40.667Z,2.30
2023-04-15T09:37:10.896Z,2.40
2023-04-15T09:39:50.195Z,1.73
2023-04-15T09:42:24.146Z,1.90
2023-04-15T09:44:53.792Z,1.60
2023-04-15T09:47:31.558Z,2.15
2023-04-15T09:50:00.436Z,2.05
2023-04-15T09:52:28.956Z,2.00
2023-04-15T09:54:59.248Z,1.92
2023-04-15T09:57:34.574Z,1.67
2023-04-15T10:00:05.284Z,2.05
2023-04-15T10:02:33.662Z,2.22
2023-04-15T10:05:03.033Z,2.30
2023-04-15T10:07:31.105Z,2.03
2023-04-15T10:10:02.079Z,1.98
2023-04-15T10:12:30.605Z,2.20
2023-04-15T10:15:01.914Z,1.83
2023-04-15T10:17:35.273Z,2.17
2023-04-15T10:20:04.695Z,2.92
2023-04-15T10:22:33.837Z,2.60
2023-04-15T10:25:04.273Z,2.70
2023-04-15T10:27:32.876Z,2.45
2023-04-15T10:30:03.040Z,2.40
2023-04-15T10:32:32.789Z,3.30
2023-04-15T10:35:01.092Z,2.65
2023-04-15T10:37:36.086Z,2.97
2023-04-15T10:40:26.116Z,2.47
2023-04-15T10:42:55.329Z,2.45
2023-04-15T10:45:27.295Z,2.58
2023-04-15T10:47:59.999Z,2.75
2023-04-15T10:50:33.161Z,2.70
2023-04-15T10:53:06.162Z,2.05
2023-04-15T10:55:35.355Z,2.33
2023-04-15T10:58:03.974Z,2.45
2023-04-15T11:00:33.174Z,2.47
2023-04-15T11:03:08.864Z,3.30
2023-04-15T11:06:01.731Z,3.20
2023-04-15T11:08:58.572Z,2.90
2023-04-15T11:12:00.459Z,2.60
2023-04-15T11:14:28.698Z,2.70
2023-04-15T11:16:56.681Z,3.78
2023-04-15T11:19:26.021Z,2.90
2023-04-15T11:21:53.979Z,2.13
2023-04-15T11:24:27.432Z,1.88
2023-04-15T11:26:59.864Z,1.80
2023-04-15T11:29:31.376Z,2.10
2023-04-15T11:32:10.357Z,2.85
2023-04-15T11:34:39.903Z,2.38
2023-04-15T11:37:08.344Z,2.13
2023-04-15T11:39:38.356Z,2.60
2023-04-15T11:42:18.102Z,3.00
2023-04-15T11:44:46.008Z,3.25
2023-04-15T11:47:24.147Z,2.80
2023-04-15T11:49:53.420Z,2.47
2023-04-15T11:52:21.505Z,3.15
2023-04-15T11:54:51.060Z,3.20
2023-04-15T11:57:19.240Z,2.88
2023-04-15T11:59:47.144Z,3.10
2023-04-15T12:02:15.475Z,2.90
2023-04-15T12:04:43.750Z,3.00
2023-04-15T12:07:13.209Z,2.90
2023-04-15T12:09:41.404Z,2.90
2023-04-15T12:12:12.064Z,2.47
2023-04-15T12:14:42.349Z,2.85
2023-04-15T12:17:13.212Z,2.45
2023-04-15T12:19:43.208Z,2.65
2023-04-15T12:22:14.159Z,2.83
2023-04-15T12:24:46.981Z,3.00
2023-04-15T12:27:16.282Z,3.00
2023-04-15T12:29:44.537Z,3.53
2023-04-15T12:32:13.995Z,2.72
2023-04-15T12:34:43.482Z,3.17
2023-04-15T12:37:14.439Z,3.22
2023-04-15T12:39:44.117Z,3.13
2023-04-15T12:42:13.071Z,3.67
2023-04-15T12:44:41.566Z,3.22
2023-04-15T12:47:10.725Z,5.00
2023-04-15T12:49:39.381Z,5.28
2023-04-15T12:52:07.700Z,5.28
2023-04-15T12:54:37.199Z,5.05
2023-04-15T12:57:07.315Z,5.20
2023-04-15T12:59:35.600Z,5.28
2023-04-15T13:02:05.543Z,5.78
2023-04-15T13:04:33.828Z,5.05
2023-04-15T13:07:03.028Z,4.40
2023-04-15T13:09:31.086Z,5.13
2023-04-15T13:12:00.526Z,4.35
2023-04-15T13:14:28.516Z,4.82
2023-04-15T13:16:58.100Z,5.00
2023-04-15T13:19:26.686Z,5.22
2023-04-15T13:21:54.683Z,5.63
2023-04-15T13:24:22.677Z,4.95
2023-04-15T13:26:50.642Z,4.90
2023-04-15T13:29:20.132Z,4.97
2023-04-15T13:31:48.243Z,4.88
2023-04-15T13:34:16.447Z,4.00
2023-04-15T13:36:44.393Z,4.03
2023-04-15T13:39:12.405Z,4.35
2023-04-15T13:41:41.387Z,4.70
2023-04-15T13:44:09.304Z,4.15
2023-04-15T13:46:39.598Z,4.32
2023-04-15T13:49:07.509Z,4.03
2023-04-15T13:51:36.353Z,3.88
2023-04-15T13:54:04.406Z,4.03
2023-04-15T13:56:32.435Z,4.00
2023-04-15T13:59:02.340Z,3.90
2023-04-15T14:01:30.579Z,4.28
2023-04-15T14:04:00.176Z,3.55
2023-04-15T14:06:28.454Z,3.08
2023-04-15T14:08:56.515Z,3.30
2023-04-15T14:11:24.555Z,3.25
2023-04-15T14:13:52.535Z,3.30
2023-04-15T14:16:20.578Z,3.13
2023-04-15T14:18:48.608Z,3.20
2023-04-15T14:21:18.043Z,3.20
2023-04-15T14:23:46.061Z,3.30
2023-04-15T14:26:14.681Z,3.63
2023-04-15T14:28:45.081Z,3.10
2023-04-15T14:31:13.411Z,2.63
2023-04-15T14:33:41.362Z,8.85
2023-04-15T14:36:10.021Z,2.33
2023-04-15T14:38:40.066Z,2.13
2023-04-15T14:41:08.568Z,2.60
2023-04-15T14:43:36.746Z,2.70
2023-04-15T14:46:04.918Z,2.20
2023-04-15T14:48:33.193Z,2.22
2023-04-15T14:51:01.208Z,2.40
2023-04-15T14:53:29.221Z,2.20
2023-04-15T14:55:58.523Z,2.53
2023-04-15T14:58:26.595Z,2.78
2023-04-15T15:00:54.580Z,2.40
2023-04-15T15:03:22.680Z,2.55
2023-04-15T15:05:50.908Z,2.63
2023-04-15T15:08:18.991Z,1.55
2023-04-15T15:10:48.722Z,1.75
2023-04-15T15:13:19.880Z,1.70
2023-04-15T15:15:49.417Z,1.13
2023-04-15T15:18:19.317Z,1.90
2023-04-15T15:20:47.789Z,1.70
2023-04-15T15:23:15.871Z,1.60
2023-04-15T15:25:43.955Z,1.30
2023-04-15T15:28:11.977Z,1.30
2023-04-15T15:30:41.273Z,1.42
2023-04-15T15:33:09.282Z,2.42
2023-04-15T15:35:37.302Z,1.40
2023-04-15T15:38:05.396Z,1.65
2023-04-15T15:40:33.404Z,2.45
2023-04-15T15:43:01.424Z,3.30
2023-04-15T15:45:29.549Z,2.13
2023-04-15T15:48:00.117Z,2.17
2023-04-15T15:50:28.492Z,2.25
2023-04-15T15:52:58.542Z,1.83
2023-04-15T15:55:27.241Z,2.28
2023-04-15T15:57:55.303Z,1.98
2023-04-15T16:00:23.820Z,2.00
2023-04-15T16:05:24.154Z,2.50
2023-04-15T16:07:52.237Z,2.92
2023-04-15T16:10:20.227Z,2.45
2023-04-15T16:12:48.255Z,2.55
2023-04-15T16:15:16.480Z,3.13
2023-04-15T16:17:44.893Z,2.45
2023-04-15T16:20:12.874Z,3.60
2023-04-15T16:22:42.326Z,2.17
2023-04-15T16:25:10.789Z,5.57
2023-04-15T16:27:57.295Z,1.95
2023-04-15T16:30:28.951Z,2.67
2023-04-15T16:32:57.683Z,2.40
2023-04-15T16:35:25.844Z,3.30
2023-04-15T16:37:57.691Z,3.17
2023-04-15T16:40:26.341Z,2.60
2023-04-15T16:42:56.336Z,2.53
2023-04-15T16:45:24.338Z,2.78
2023-04-15T16:47:52.386Z,3.25
2023-04-15T16:50:20.470Z,2.92
2023-04-15T16:52:48.423Z,3.00
2023-04-15T16:55:17.781Z,2.60
2023-04-15T16:58:01.172Z,3.00
2023-04-15T17:00:32.137Z,2.88
2023-04-15T17:03:00.372Z,2.70
2023-04-15T17:05:29.238Z,4.57
2023-04-15T17:07:57.263Z,2.67
2023-04-15T17:10:26.713Z,3.38
2023-04-15T17:12:56.742Z,2.47
2023-04-15T17:15:25.068Z,2.65
2023-04-15T17:17:54.033Z,3.20
2023-04-15T17:20:22.221Z,2.83
2023-04-15T17:22:50.411Z,3.25
2023-04-15T17:25:19.444Z,3.08
2023-04-15T17:27:48.769Z,2.67
2023-04-15T17:30:16.744Z,3.88
2023-04-15T17:32:44.834Z,5.00
2023-04-15T17:35:12.969Z,4.50
2023-04-15T17:37:41.093Z,5.55
2023-04-15T17:40:10.045Z,4.88
2023-04-15T17:42:37.946Z,4.40
2023-04-15T17:45:08.542Z,3.85
2023-04-15T17:47:36.701Z,3.90
2023-04-15T17:50:05.225Z,4.35
2023-04-15T17:52:33.166Z,4.00
2023-04-15T17:55:01.135Z,4.00
2023-04-15T17:57:29.326Z,4.68
2023-04-15T17:59:57.417Z,4.15
2023-04-15T18:02:26.950Z,4.35
2023-04-15T18:04:55.307Z,5.18
2023-04-15T18:07:23.370Z,4.88
2023-04-15T18:09:51.625Z,4.45
2023-04-15T18:12:19.597Z,4.78
2023-04-15T18:14:47.711Z,4.30
2023-04-15T18:17:15.776Z,4.63
2023-04-15T18:19:45.871Z,4.90
2023-04-15T18:22:13.916Z,5.38
2023-04-15T18:24:41.971Z,5.93
2023-04-15T18:27:09.984Z,6.18
2023-04-15T18:29:38.446Z,5.75
2023-04-15T18:32:06.671Z,5.60
2023-04-15T18:34:34.726Z,5.28
2023-04-15T18:37:05.280Z,4.90
2023-04-15T18:39:33.446Z,5.80
2023-04-15T18:42:01.924Z,5.43
2023-04-15T18:44:30.401Z,6.72
2023-04-15T18:46:58.402Z,7.00
2023-04-15T18:49:27.385Z,7.13
2023-04-15T18:51:55.616Z,6.85
2023-04-15T18:54:25.098Z,6.45
2023-04-15T18:56:53.435Z,7.32
2023-04-15T18:59:29.372Z,8.15
2023-04-15T19:01:59.132Z,7.75
2023-04-15T19:04:28.808Z,7.53
2023-04-15T19:06:57.283Z,9.27
2023-04-15T19:09:26.674Z,5.57
2023-04-15T19:11:54.648Z,6.60
2023-04-15T19:14:23.034Z,7.13
2023-04-15T19:16:51.225Z,7.00
2023-04-15T19:19:19.744Z,8.80
2023-04-15T19:21:50.002Z,8.50
2023-04-15T19:24:18.902Z,8.13
2023-04-15T19:26:50.019Z,6.18
2023-04-15T19:29:18.354Z,6.13
2023-04-15T19:31:46.429Z,6.18
2023-04-15T19:34:14.587Z,4.70
2023-04-15T19:36:43.059Z,5.20
2023-04-15T19:39:11.407Z,5.25
2023-04-15T19:41:39.665Z,6.20
2023-04-15T19:44:09.050Z,6.68
2023-04-15T19:46:37.267Z,6.10
2023-04-15T19:49:05.668Z,6.13
2023-04-15T19:51:33.919Z,6.53
2023-04-15T19:54:01.927Z,6.78
2023-04-15T19:56:31.728Z,7.30
2023-04-15T19:59:02.168Z,7.38
2023-04-15T20:01:31.917Z,7.78
2023-04-15T20:04:00.266Z,9.75
2023-04-15T20:06:28.504Z,10.18
2023-04-15T20:08:56.442Z,10.07
2023-04-15T20:12:09.283Z,10.80
2023-04-15T20:14:17.560Z,9.82
2023-04-15T20:16:47.681Z,8.13
2023-04-15T20:19:15.850Z,8.18
2023-04-15T20:21:43.833Z,7.70
2023-04-15T20:24:11.837Z,7.88
2023-04-15T20:26:39.822Z,7.90
2023-04-15T20:29:08.322Z,6.57
2023-04-15T20:31:36.546Z,6.30
2023-04-15T20:34:05.973Z,5.95
2023-04-15T20:36:34.351Z,6.03
2023-04-15T20:39:02.396Z,6.38
2023-04-15T20:41:30.436Z,6.70
2023-04-15T20:43:58.421Z,7.25
2023-04-15T20:46:27.746Z,7.22
2023-04-15T20:48:56.634Z,7.60
2023-04-15T20:51:27.429Z,7.43
2023-04-15T20:53:55.584Z,7.80
2023-04-15T20:56:23.620Z,7.93
2023-04-15T20:58:51.927Z,8.18
2023-04-15T21:01:20.044Z,7.88
2023-04-15T21:03:48.416Z,7.88
2023-04-15T21:06:18.880Z,7.88
2023-04-15T21:08:48.242Z,9.05
2023-04-15T21:11:25.706Z,8.98
2023-04-15T21:14:04.232Z,9.70
2023-04-15T21:16:33.889Z,8.75
2023-04-15T21:19:01.970Z,9.35
2023-04-15T21:21:29.905Z,9.65
2023-04-15T21:24:00.353Z,10.15
2023-04-15T21:26:28.427Z,10.13
2023-04-15T21:28:56.384Z,10.40
2023-04-15T21:31:24.597Z,10.43
2023-04-15T21:33:52.630Z,10.60
2023-04-15T21:36:20.662Z,10.93
2023-04-15T21:38:48.685Z,10.80
2023-04-15T21:41:18.066Z,10.82
2023-04-15T21:43:46.049Z,10.90
2023-04-15T21:46:22.248Z,11.48
2023-04-15T21:48:54.098Z,11.23
2023-04-15T21:51:22.463Z,11.25
2023-04-15T21:53:50.445Z,12.35
2023-04-15T21:56:21.529Z,12.30
2023-04-15T21:58:49.470Z,12.73
2023-04-15T22:01:17.498Z,13.10
2023-04-15T22:03:45.629Z,12.95
2023-04-15T22:06:13.839Z,12.30
2023-04-15T22:08:54.968Z,12.60
2023-04-15T22:11:28.213Z,12.23
2023-04-15T22:13:57.240Z,13.25
2023-04-15T22:16:26.302Z,13.43
2023-04-15T22:18:54.629Z,13.95
2023-04-15T22:21:22.644Z,13.82
2023-04-15T22:23:50.770Z,14.32
2023-04-15T22:26:18.862Z,13.25
2023-04-15T22:28:48.231Z,12.60
2023-04-15T22:31:16.444Z,12.07
2023-04-15T22:33:44.397Z,13.02
2023-04-15T22:36:13.522Z,13.63
2023-04-15T22:38:41.495Z,13.05
2023-04-15T22:41:10.174Z,13.05
2023-04-15T22:43:38.300Z,14.30
2023-04-15T22:46:07.847Z,13.38
2023-04-15T22:48:36.063Z,12.00
2023-04-15T22:51:06.160Z,12.43
2023-04-15T22:53:34.268Z,12.57
2023-04-15T22:56:02.372Z,13.02
2023-04-15T22:58:32.108Z,13.27
2023-04-15T23:01:00.572Z,13.52
2023-04-15T23:03:30.006Z,12.50
2023-04-15T23:05:58.135Z,12.65
2023-04-15T23:08:26.086Z,12.00
2023-04-15T23:10:54.018Z,12.82
2023-04-15T23:13:22.016Z,12.65
2023-04-15T23:15:50.042Z,12.88
2023-04-15T23:18:18.082Z,12.68
2023-04-15T23:20:47.826Z,12.70
2023-04-15T23:23:16.458Z,13.27
2023-04-15T23:25:44.457Z,13.65
2023-04-15T23:28:12.513Z,13.50
2023-04-15T23:30:40.573Z,12.50
2023-04-15T23:33:08.544Z,13.13
2023-04-15T23:35:37.824Z,13.05
2023-04-15T23:38:07.110Z,12.50
2023-04-15T23:40:35.510Z,12.77
2023-04-15T23:43:03.489Z,12.95
2023-04-15T23:45:34.754Z,13.20
2023-04-15T23:48:02.766Z,12.68
2023-04-15T23:50:30.724Z,11.80
2023-04-15T23:52:58.676Z,12.80
2023-04-15T23:55:28.019Z,11.93
2023-04-15T23:57:56.124Z,12.68
